Airport View

Enter AWOS ICAO identifier for current METAR.

ex. KFNL

KIAD 202352Z 16005KT 10SM FEW250 21/11 A3021 RMK AO2 SLP231 T02110111 10272 20211 53005

21 Sep 2019 00:24

Phone: 703-661-2990

Other Area AWOS: KJYO - KHEF - KDAA - KGAI

TAF KIAD 202320Z 2100/2206 17005KT P6SM FEW250 FM210300 VRB03KT P6SM FEW050 FEW250 FM211500 17004KT P6SM FEW050 SCT250 FM220300 VRB03KT P6SM FEW080 SCT250